sensor_id;sensor_type;location;lat;lon;timestamp;temperature;humidity
12622;DHT22;6376;48.182;-1.644;2023-11-18T00:00:22;14.10;93.00
12622;DHT22;6376;48.182;-1.644;2023-11-18T00:02:49;14.10;93.00
12622;DHT22;6376;48.182;-1.644;2023-11-18T00:05:15;14.10;93.10
12622;DHT22;6376;48.182;-1.644;2023-11-18T00:07:41;14.10;93.10
12622;DHT22;6376;48.182;-1.644;2023-11-18T00:10:08;14.10;93.10
12622;DHT22;6376;48.182;-1.644;2023-11-18T00:12:34;14.10;93.00
12622;DHT22;6376;48.182;-1.644;2023-11-18T00:15:04;14.10;93.10
12622;DHT22;6376;48.182;-1.644;2023-11-18T00:17:32;14.10;93.10
12622;DHT22;6376;48.182;-1.644;2023-11-18T00:19:58;14.10;93.10
12622;DHT22;6376;48.182;-1.644;2023-11-18T00:22:24;14.10;93.10
12622;DHT22;6376;48.182;-1.644;2023-11-18T00:24:50;14.10;93.20
12622;DHT22;6376;48.182;-1.644;2023-11-18T00:27:17;14.00;93.20
12622;DHT22;6376;48.182;-1.644;2023-11-18T00:29:43;14.00;93.30
12622;DHT22;6376;48.182;-1.644;2023-11-18T00:32:11;14.00;93.30
12622;DHT22;6376;48.182;-1.644;2023-11-18T00:34:37;14.10;93.30
12622;DHT22;6376;48.182;-1.644;2023-11-18T00:37:02;14.10;93.30
12622;DHT22;6376;48.182;-1.644;2023-11-18T00:39:29;14.10;93.30
12622;DHT22;6376;48.182;-1.644;2023-11-18T00:41:54;14.10;93.30
12622;DHT22;6376;48.182;-1.644;2023-11-18T00:44:21;14.10;93.30
12622;DHT22;6376;48.182;-1.644;2023-11-18T00:46:47;14.10;93.40
12622;DHT22;6376;48.182;-1.644;2023-11-18T00:49:12;14.10;93.30
12622;DHT22;6376;48.182;-1.644;2023-11-18T00:51:38;14.10;93.40
12622;DHT22;6376;48.182;-1.644;2023-11-18T00:54:04;14.00;93.40
12622;DHT22;6376;48.182;-1.644;2023-11-18T00:56:33;14.00;93.50
12622;DHT22;6376;48.182;-1.644;2023-11-18T00:58:59;14.10;93.40
12622;DHT22;6376;48.182;-1.644;2023-11-18T01:01:27;14.10;93.40
12622;DHT22;6376;48.182;-1.644;2023-11-18T01:03:53;14.10;93.50
12622;DHT22;6376;48.182;-1.644;2023-11-18T01:06:19;14.10;93.50
12622;DHT22;6376;48.182;-1.644;2023-11-18T01:08:45;14.10;93.50
12622;DHT22;6376;48.182;-1.644;2023-11-18T01:11:16;14.10;93.50
12622;DHT22;6376;48.182;-1.644;2023-11-18T01:13:45;14.10;93.50
12622;DHT22;6376;48.182;-1.644;2023-11-18T01:16:10;14.10;93.50
12622;DHT22;6376;48.182;-1.644;2023-11-18T01:18:36;14.10;93.50
12622;DHT22;6376;48.182;-1.644;2023-11-18T01:21:02;14.10;93.50
12622;DHT22;6376;48.182;-1.644;2023-11-18T01:23:28;14.10;93.60
12622;DHT22;6376;48.182;-1.644;2023-11-18T01:25:54;14.00;93.50
12622;DHT22;6376;48.182;-1.644;2023-11-18T01:28:21;14.10;93.60
12622;DHT22;6376;48.182;-1.644;2023-11-18T01:30:47;14.10;93.60
12622;DHT22;6376;48.182;-1.644;2023-11-18T01:33:13;14.10;93.60
12622;DHT22;6376;48.182;-1.644;2023-11-18T01:35:40;14.10;93.60
12622;DHT22;6376;48.182;-1.644;2023-11-18T01:38:05;14.10;93.60
12622;DHT22;6376;48.182;-1.644;2023-11-18T01:40:33;14.10;93.60
12622;DHT22;6376;48.182;-1.644;2023-11-18T01:42:58;14.10;93.70
12622;DHT22;6376;48.182;-1.644;2023-11-18T01:45:24;14.10;93.60
12622;DHT22;6376;48.182;-1.644;2023-11-18T01:47:52;14.10;93.70
12622;DHT22;6376;48.182;-1.644;2023-11-18T01:50:18;14.10;93.70
12622;DHT22;6376;48.182;-1.644;2023-11-18T01:52:45;14.10;93.70
12622;DHT22;6376;48.182;-1.644;2023-11-18T01:55:11;14.10;93.70
12622;DHT22;6376;48.182;-1.644;2023-11-18T01:57:38;14.10;93.70
12622;DHT22;6376;48.182;-1.644;2023-11-18T02:00:07;14.10;93.70
12622;DHT22;6376;48.182;-1.644;2023-11-18T02:02:36;14.10;93.70
12622;DHT22;6376;48.182;-1.644;2023-11-18T02:05:04;14.10;93.70
12622;DHT22;6376;48.182;-1.644;2023-11-18T02:07:33;14.10;93.70
12622;DHT22;6376;48.182;-1.644;2023-11-18T02:10:02;14.10;93.80
12622;DHT22;6376;48.182;-1.644;2023-11-18T02:12:35;14.10;93.70
12622;DHT22;6376;48.182;-1.644;2023-11-18T02:15:05;14.10;93.80
12622;DHT22;6376;48.182;-1.644;2023-11-18T02:17:38;14.10;93.80
12622;DHT22;6376;48.182;-1.644;2023-11-18T02:20:05;14.10;93.70
12622;DHT22;6376;48.182;-1.644;2023-11-18T02:22:44;14.10;93.80
12622;DHT22;6376;48.182;-1.644;2023-11-18T02:25:15;14.10;93.80
12622;DHT22;6376;48.182;-1.644;2023-11-18T02:27:41;14.10;93.90
12622;DHT22;6376;48.182;-1.644;2023-11-18T02:30:07;14.10;93.80
12622;DHT22;6376;48.182;-1.644;2023-11-18T02:32:42;14.10;93.70
12622;DHT22;6376;48.182;-1.644;2023-11-18T02:37:44;14.10;93.80
12622;DHT22;6376;48.182;-1.644;2023-11-18T02:40:19;14.10;93.90
12622;DHT22;6376;48.182;-1.644;2023-11-18T02:42:46;14.10;93.80
12622;DHT22;6376;48.182;-1.644;2023-11-18T02:45:15;14.10;93.80
12622;DHT22;6376;48.182;-1.644;2023-11-18T02:47:44;14.10;93.90
12622;DHT22;6376;48.182;-1.644;2023-11-18T02:50:10;14.10;93.90
12622;DHT22;6376;48.182;-1.644;2023-11-18T02:52:37;14.10;94.00
12622;DHT22;6376;48.182;-1.644;2023-11-18T02:55:05;14.10;94.10
12622;DHT22;6376;48.182;-1.644;2023-11-18T02:57:32;14.10;93.90
12622;DHT22;6376;48.182;-1.644;2023-11-18T02:59:58;14.10;94.00
12622;DHT22;6376;48.182;-1.644;2023-11-18T03:02:26;14.10;93.90
12622;DHT22;6376;48.182;-1.644;2023-11-18T03:04:59;14.10;93.90
12622;DHT22;6376;48.182;-1.644;2023-11-18T03:07:25;14.10;94.00
12622;DHT22;6376;48.182;-1.644;2023-11-18T03:09:53;14.10;93.90
12622;DHT22;6376;48.182;-1.644;2023-11-18T03:12:22;14.10;94.00
12622;DHT22;6376;48.182;-1.644;2023-11-18T03:14:48;14.10;94.10
12622;DHT22;6376;48.182;-1.644;2023-11-18T03:17:14;14.10;94.00
12622;DHT22;6376;48.182;-1.644;2023-11-18T03:19:39;14.10;94.10
12622;DHT22;6376;48.182;-1.644;2023-11-18T03:22:07;14.10;94.10
12622;DHT22;6376;48.182;-1.644;2023-11-18T03:24:34;14.10;94.10
12622;DHT22;6376;48.182;-1.644;2023-11-18T03:26:59;14.10;94.00
12622;DHT22;6376;48.182;-1.644;2023-11-18T03:29:25;14.10;94.10
12622;DHT22;6376;48.182;-1.644;2023-11-18T03:31:50;14.10;94.20
12622;DHT22;6376;48.182;-1.644;2023-11-18T03:34:17;14.10;94.20
12622;DHT22;6376;48.182;-1.644;2023-11-18T03:36:45;14.10;94.10
12622;DHT22;6376;48.182;-1.644;2023-11-18T03:39:12;14.10;94.10
12622;DHT22;6376;48.182;-1.644;2023-11-18T03:41:37;14.10;94.20
12622;DHT22;6376;48.182;-1.644;2023-11-18T03:44:04;14.10;94.20
12622;DHT22;6376;48.182;-1.644;2023-11-18T03:46:30;14.10;94.10
12622;DHT22;6376;48.182;-1.644;2023-11-18T03:49:00;14.10;94.30
12622;DHT22;6376;48.182;-1.644;2023-11-18T03:51:25;14.10;94.30
12622;DHT22;6376;48.182;-1.644;2023-11-18T03:53:51;14.10;94.30
12622;DHT22;6376;48.182;-1.644;2023-11-18T03:56:17;14.10;94.10
12622;DHT22;6376;48.182;-1.644;2023-11-18T03:58:44;14.10;94.20
12622;DHT22;6376;48.182;-1.644;2023-11-18T04:01:09;14.10;94.10
12622;DHT22;6376;48.182;-1.644;2023-11-18T04:03:36;14.20;94.10
12622;DHT22;6376;48.182;-1.644;2023-11-18T04:06:02;14.10;94.20
12622;DHT22;6376;48.182;-1.644;2023-11-18T04:08:29;14.10;94.20
12622;DHT22;6376;48.182;-1.644;2023-11-18T04:10:54;14.20;94.20
12622;DHT22;6376;48.182;-1.644;2023-11-18T04:13:20;14.20;94.10
12622;DHT22;6376;48.182;-1.644;2023-11-18T04:15:45;14.10;94.10
12622;DHT22;6376;48.182;-1.644;2023-11-18T04:18:11;14.10;94.30
12622;DHT22;6376;48.182;-1.644;2023-11-18T04:20:37;14.10;94.20
12622;DHT22;6376;48.182;-1.644;2023-11-18T04:23:02;14.10;94.30
12622;DHT22;6376;48.182;-1.644;2023-11-18T04:25:28;14.20;94.30
12622;DHT22;6376;48.182;-1.644;2023-11-18T04:27:53;14.20;94.20
12622;DHT22;6376;48.182;-1.644;2023-11-18T04:30:19;14.20;94.20
12622;DHT22;6376;48.182;-1.644;2023-11-18T04:32:45;14.20;94.20
12622;DHT22;6376;48.182;-1.644;2023-11-18T04:35:11;14.20;94.20
12622;DHT22;6376;48.182;-1.644;2023-11-18T04:37:38;14.20;94.30
12622;DHT22;6376;48.182;-1.644;2023-11-18T04:40:06;14.20;94.30
12622;DHT22;6376;48.182;-1.644;2023-11-18T04:42:34;14.20;94.30
12622;DHT22;6376;48.182;-1.644;2023-11-18T04:45:00;14.20;94.30
12622;DHT22;6376;48.182;-1.644;2023-11-18T04:47:26;14.20;94.20
12622;DHT22;6376;48.182;-1.644;2023-11-18T04:49:52;14.20;94.40
12622;DHT22;6376;48.182;-1.644;2023-11-18T04:52:17;14.20;94.30
12622;DHT22;6376;48.182;-1.644;2023-11-18T04:54:44;14.20;94.60
12622;DHT22;6376;48.182;-1.644;2023-11-18T04:57:09;14.20;94.40
12622;DHT22;6376;48.182;-1.644;2023-11-18T04:59:36;14.20;94.40
12622;DHT22;6376;48.182;-1.644;2023-11-18T05:02:02;14.20;94.30
12622;DHT22;6376;48.182;-1.644;2023-11-18T05:04:28;14.20;94.30
12622;DHT22;6376;48.182;-1.644;2023-11-18T05:06:54;14.20;94.30
12622;DHT22;6376;48.182;-1.644;2023-11-18T05:09:19;14.20;94.40
12622;DHT22;6376;48.182;-1.644;2023-11-18T05:11:46;14.20;94.30
12622;DHT22;6376;48.182;-1.644;2023-11-18T05:14:11;14.20;94.40
12622;DHT22;6376;48.182;-1.644;2023-11-18T05:16:37;14.20;94.50
12622;DHT22;6376;48.182;-1.644;2023-11-18T05:19:03;14.20;94.40
12622;DHT22;6376;48.182;-1.644;2023-11-18T05:21:29;14.20;94.40
12622;DHT22;6376;48.182;-1.644;2023-11-18T05:23:54;14.20;94.60
12622;DHT22;6376;48.182;-1.644;2023-11-18T05:26:20;14.20;94.50
12622;DHT22;6376;48.182;-1.644;2023-11-18T05:28:46;14.20;94.50
12622;DHT22;6376;48.182;-1.644;2023-11-18T05:31:11;14.20;94.50
12622;DHT22;6376;48.182;-1.644;2023-11-18T05:33:37;14.20;94.60
12622;DHT22;6376;48.182;-1.644;2023-11-18T05:36:03;14.20;94.70
12622;DHT22;6376;48.182;-1.644;2023-11-18T05:38:30;14.20;94.60
12622;DHT22;6376;48.182;-1.644;2023-11-18T05:41:00;14.20;94.70
12622;DHT22;6376;48.182;-1.644;2023-11-18T05:43:32;14.20;94.60
12622;DHT22;6376;48.182;-1.644;2023-11-18T05:46:06;14.20;94.90
12622;DHT22;6376;48.182;-1.644;2023-11-18T05:48:48;14.20;94.60
12622;DHT22;6376;48.182;-1.644;2023-11-18T05:51:19;14.20;94.70
12622;DHT22;6376;48.182;-1.644;2023-11-18T05:53:45;14.20;94.60
12622;DHT22;6376;48.182;-1.644;2023-11-18T05:56:15;14.20;94.80
12622;DHT22;6376;48.182;-1.644;2023-11-18T05:58:43;14.20;94.70
12622;DHT22;6376;48.182;-1.644;2023-11-18T06:01:09;14.30;94.70
12622;DHT22;6376;48.182;-1.644;2023-11-18T06:03:37;14.30;94.70
12622;DHT22;6376;48.182;-1.644;2023-11-18T06:06:08;14.30;94.60
12622;DHT22;6376;48.182;-1.644;2023-11-18T06:08:35;14.30;94.70
12622;DHT22;6376;48.182;-1.644;2023-11-18T06:11:01;14.30;94.60
12622;DHT22;6376;48.182;-1.644;2023-11-18T06:16:23;14.30;94.50
12622;DHT22;6376;48.182;-1.644;2023-11-18T06:18:55;14.20;94.50
12622;DHT22;6376;48.182;-1.644;2023-11-18T06:21:22;14.30;94.60
12622;DHT22;6376;48.182;-1.644;2023-11-18T06:23:50;14.30;94.70
12622;DHT22;6376;48.182;-1.644;2023-11-18T06:26:16;14.20;94.50
12622;DHT22;6376;48.182;-1.644;2023-11-18T06:28:44;14.30;94.60
12622;DHT22;6376;48.182;-1.644;2023-11-18T06:31:10;14.30;94.70
12622;DHT22;6376;48.182;-1.644;2023-11-18T06:33:41;14.20;94.60
12622;DHT22;6376;48.182;-1.644;2023-11-18T06:36:09;14.30;94.90
12622;DHT22;6376;48.182;-1.644;2023-11-18T06:38:37;14.30;94.80
12622;DHT22;6376;48.182;-1.644;2023-11-18T06:41:03;14.30;94.80
12622;DHT22;6376;48.182;-1.644;2023-11-18T06:43:30;14.30;94.70
12622;DHT22;6376;48.182;-1.644;2023-11-18T06:46:11;14.30;94.70
12622;DHT22;6376;48.182;-1.644;2023-11-18T06:48:39;14.30;94.70
12622;DHT22;6376;48.182;-1.644;2023-11-18T06:51:06;14.30;94.70
12622;DHT22;6376;48.182;-1.644;2023-11-18T06:53:34;14.30;94.70
12622;DHT22;6376;48.182;-1.644;2023-11-18T06:56:00;14.30;94.80
12622;DHT22;6376;48.182;-1.644;2023-11-18T06:58:25;14.30;94.70
12622;DHT22;6376;48.182;-1.644;2023-11-18T07:00:52;14.30;94.90
12622;DHT22;6376;48.182;-1.644;2023-11-18T07:03:18;14.30;94.90
12622;DHT22;6376;48.182;-1.644;2023-11-18T07:05:43;14.30;94.90
12622;DHT22;6376;48.182;-1.644;2023-11-18T07:08:09;14.30;94.80
12622;DHT22;6376;48.182;-1.644;2023-11-18T07:10:35;14.30;94.80
12622;DHT22;6376;48.182;-1.644;2023-11-18T07:13:03;14.30;94.70
12622;DHT22;6376;48.182;-1.644;2023-11-18T07:15:29;14.30;94.90
12622;DHT22;6376;48.182;-1.644;2023-11-18T07:17:54;14.30;95.00
12622;DHT22;6376;48.182;-1.644;2023-11-18T07:20:20;14.30;94.90
12622;DHT22;6376;48.182;-1.644;2023-11-18T07:22:47;14.30;94.90
12622;DHT22;6376;48.182;-1.644;2023-11-18T07:25:12;14.30;95.10
12622;DHT22;6376;48.182;-1.644;2023-11-18T07:27:38;14.30;95.20
12622;DHT22;6376;48.182;-1.644;2023-11-18T07:30:04;14.30;95.10
12622;DHT22;6376;48.182;-1.644;2023-11-18T07:32:35;14.30;95.30
12622;DHT22;6376;48.182;-1.644;2023-11-18T07:35:01;14.30;95.00
12622;DHT22;6376;48.182;-1.644;2023-11-18T07:37:27;14.30;94.70
12622;DHT22;6376;48.182;-1.644;2023-11-18T07:39:52;14.30;95.10
12622;DHT22;6376;48.182;-1.644;2023-11-18T07:42:20;14.30;95.00
12622;DHT22;6376;48.182;-1.644;2023-11-18T07:44:46;14.30;94.90
12622;DHT22;6376;48.182;-1.644;2023-11-18T07:47:13;14.30;95.20
12622;DHT22;6376;48.182;-1.644;2023-11-18T07:49:41;14.30;95.30
12622;DHT22;6376;48.182;-1.644;2023-11-18T07:52:07;14.30;95.10
12622;DHT22;6376;48.182;-1.644;2023-11-18T07:54:32;14.30;95.10
12622;DHT22;6376;48.182;-1.644;2023-11-18T07:56:58;14.30;94.90
12622;DHT22;6376;48.182;-1.644;2023-11-18T07:59:24;14.30;95.30
12622;DHT22;6376;48.182;-1.644;2023-11-18T08:01:50;14.30;95.10
12622;DHT22;6376;48.182;-1.644;2023-11-18T08:04:15;14.30;95.20
12622;DHT22;6376;48.182;-1.644;2023-11-18T08:06:42;14.30;95.20
12622;DHT22;6376;48.182;-1.644;2023-11-18T08:09:09;14.30;95.10
12622;DHT22;6376;48.182;-1.644;2023-11-18T08:11:38;14.30;95.20
12622;DHT22;6376;48.182;-1.644;2023-11-18T08:14:07;14.30;95.40
12622;DHT22;6376;48.182;-1.644;2023-11-18T08:16:33;14.30;95.20
12622;DHT22;6376;48.182;-1.644;2023-11-18T08:18:59;14.30;95.40
12622;DHT22;6376;48.182;-1.644;2023-11-18T08:21:27;14.30;95.50
12622;DHT22;6376;48.182;-1.644;2023-11-18T08:23:53;14.30;95.20
12622;DHT22;6376;48.182;-1.644;2023-11-18T08:26:19;14.30;95.10
12622;DHT22;6376;48.182;-1.644;2023-11-18T08:28:45;14.30;95.40
12622;DHT22;6376;48.182;-1.644;2023-11-18T08:31:13;14.40;95.40
12622;DHT22;6376;48.182;-1.644;2023-11-18T08:33:41;14.40;95.40
12622;DHT22;6376;48.182;-1.644;2023-11-18T08:36:07;14.30;95.30
12622;DHT22;6376;48.182;-1.644;2023-11-18T08:38:33;14.40;95.30
12622;DHT22;6376;48.182;-1.644;2023-11-18T08:41:00;14.30;95.80
12622;DHT22;6376;48.182;-1.644;2023-11-18T08:43:26;14.40;95.80
12622;DHT22;6376;48.182;-1.644;2023-11-18T08:45:54;14.40;96.00
12622;DHT22;6376;48.182;-1.644;2023-11-18T08:48:21;14.30;95.50
12622;DHT22;6376;48.182;-1.644;2023-11-18T08:50:48;14.40;95.30
12622;DHT22;6376;48.182;-1.644;2023-11-18T08:53:14;14.40;95.60
12622;DHT22;6376;48.182;-1.644;2023-11-18T08:55:44;14.40;95.50
12622;DHT22;6376;48.182;-1.644;2023-11-18T08:58:22;14.40;95.80
12622;DHT22;6376;48.182;-1.644;2023-11-18T09:00:53;14.40;95.40
12622;DHT22;6376;48.182;-1.644;2023-11-18T09:03:23;14.40;95.60
12622;DHT22;6376;48.182;-1.644;2023-11-18T09:06:03;14.40;95.60
12622;DHT22;6376;48.182;-1.644;2023-11-18T09:08:34;14.40;95.40
12622;DHT22;6376;48.182;-1.644;2023-11-18T09:11:02;14.40;95.60
12622;DHT22;6376;48.182;-1.644;2023-11-18T09:13:28;14.40;95.80
12622;DHT22;6376;48.182;-1.644;2023-11-18T09:16:01;14.40;95.70
12622;DHT22;6376;48.182;-1.644;2023-11-18T09:18:30;14.40;95.60
12622;DHT22;6376;48.182;-1.644;2023-11-18T09:20:58;14.40;95.60
12622;DHT22;6376;48.182;-1.644;2023-11-18T09:23:25;14.40;95.80
12622;DHT22;6376;48.182;-1.644;2023-11-18T09:25:55;14.40;95.70
12622;DHT22;6376;48.182;-1.644;2023-11-18T09:28:23;14.40;95.50
12622;DHT22;6376;48.182;-1.644;2023-11-18T09:30:55;14.40;95.50
12622;DHT22;6376;48.182;-1.644;2023-11-18T09:33:24;14.40;95.40
12622;DHT22;6376;48.182;-1.644;2023-11-18T09:36:07;14.50;95.40
12622;DHT22;6376;48.182;-1.644;2023-11-18T09:38:35;14.50;95.60
12622;DHT22;6376;48.182;-1.644;2023-11-18T09:41:02;14.50;95.50
12622;DHT22;6376;48.182;-1.644;2023-11-18T09:43:32;14.50;95.60
12622;DHT22;6376;48.182;-1.644;2023-11-18T09:46:06;14.40;95.40
12622;DHT22;6376;48.182;-1.644;2023-11-18T09:48:46;14.50;95.60
12622;DHT22;6376;48.182;-1.644;2023-11-18T09:51:15;14.50;95.50
12622;DHT22;6376;48.182;-1.644;2023-11-18T09:53:44;14.50;95.50
12622;DHT22;6376;48.182;-1.644;2023-11-18T09:56:22;14.50;95.60
12622;DHT22;6376;48.182;-1.644;2023-11-18T09:59:04;14.50;95.60
12622;DHT22;6376;48.182;-1.644;2023-11-18T10:01:35;14.50;95.80
12622;DHT22;6376;48.182;-1.644;2023-11-18T10:04:07;14.50;95.50
12622;DHT22;6376;48.182;-1.644;2023-11-18T10:06:35;14.50;96.00
12622;DHT22;6376;48.182;-1.644;2023-11-18T10:09:02;14.50;96.00
12622;DHT22;6376;48.182;-1.644;2023-11-18T10:11:44;14.50;95.90
12622;DHT22;6376;48.182;-1.644;2023-11-18T10:14:15;14.50;95.80
12622;DHT22;6376;48.182;-1.644;2023-11-18T10:16:42;14.50;95.70
12622;DHT22;6376;48.182;-1.644;2023-11-18T10:19:11;14.50;95.70
12622;DHT22;6376;48.182;-1.644;2023-11-18T10:21:37;14.50;95.70
12622;DHT22;6376;48.182;-1.644;2023-11-18T10:24:09;14.50;95.70
12622;DHT22;6376;48.182;-1.644;2023-11-18T10:26:45;14.50;95.50
12622;DHT22;6376;48.182;-1.644;2023-11-18T10:29:11;14.50;95.80
12622;DHT22;6376;48.182;-1.644;2023-11-18T10:31:39;14.60;95.60
12622;DHT22;6376;48.182;-1.644;2023-11-18T10:34:11;14.50;95.50
12622;DHT22;6376;48.182;-1.644;2023-11-18T10:36:37;14.50;95.50
12622;DHT22;6376;48.182;-1.644;2023-11-18T10:39:04;14.60;95.70
12622;DHT22;6376;48.182;-1.644;2023-11-18T10:41:43;14.60;95.60
12622;DHT22;6376;48.182;-1.644;2023-11-18T10:44:09;14.50;95.70
12622;DHT22;6376;48.182;-1.644;2023-11-18T10:46:40;14.50;95.80
12622;DHT22;6376;48.182;-1.644;2023-11-18T10:49:06;14.50;95.70
12622;DHT22;6376;48.182;-1.644;2023-11-18T10:51:35;14.50;95.70
12622;DHT22;6376;48.182;-1.644;2023-11-18T10:54:04;14.60;95.70
12622;DHT22;6376;48.182;-1.644;2023-11-18T10:56:31;14.60;95.70
12622;DHT22;6376;48.182;-1.644;2023-11-18T11:01:30;14.60;95.60
12622;DHT22;6376;48.182;-1.644;2023-11-18T11:04:00;14.60;95.50
12622;DHT22;6376;48.182;-1.644;2023-11-18T11:06:30;14.60;95.50
12622;DHT22;6376;48.182;-1.644;2023-11-18T11:08:57;14.60;95.40
12622;DHT22;6376;48.182;-1.644;2023-11-18T11:11:37;14.60;95.80
12622;DHT22;6376;48.182;-1.644;2023-11-18T11:14:04;14.70;95.90
12622;DHT22;6376;48.182;-1.644;2023-11-18T11:16:42;14.70;95.90
12622;DHT22;6376;48.182;-1.644;2023-11-18T11:19:13;14.70;95.90
12622;DHT22;6376;48.182;-1.644;2023-11-18T11:21:52;14.70;95.90
12622;DHT22;6376;48.182;-1.644;2023-11-18T11:24:30;14.70;95.80
12622;DHT22;6376;48.182;-1.644;2023-11-18T11:27:17;14.70;95.90
12622;DHT22;6376;48.182;-1.644;2023-11-18T11:30:01;14.70;95.80
12622;DHT22;6376;48.182;-1.644;2023-11-18T11:32:59;14.70;95.80
12622;DHT22;6376;48.182;-1.644;2023-11-18T11:35:33;14.70;95.70
12622;DHT22;6376;48.182;-1.644;2023-11-18T11:37:59;14.70;95.80
12622;DHT22;6376;48.182;-1.644;2023-11-18T11:40:37;14.70;95.60
12622;DHT22;6376;48.182;-1.644;2023-11-18T11:43:08;14.70;95.50
12622;DHT22;6376;48.182;-1.644;2023-11-18T11:45:36;14.70;95.60
12622;DHT22;6376;48.182;-1.644;2023-11-18T11:48:03;14.70;95.90
12622;DHT22;6376;48.182;-1.644;2023-11-18T11:50:55;14.80;96.10
12622;DHT22;6376;48.182;-1.644;2023-11-18T11:53:26;14.80;96.20
12622;DHT22;6376;48.182;-1.644;2023-11-18T11:55:55;14.80;96.10
12622;DHT22;6376;48.182;-1.644;2023-11-18T11:58:33;14.70;96.20
12622;DHT22;6376;48.182;-1.644;2023-11-18T12:01:00;14.70;96.10
12622;DHT22;6376;48.182;-1.644;2023-11-18T12:03:39;14.80;96.40
12622;DHT22;6376;48.182;-1.644;2023-11-18T12:06:08;14.70;96.20
12622;DHT22;6376;48.182;-1.644;2023-11-18T12:08:37;14.80;96.20
12622;DHT22;6376;48.182;-1.644;2023-11-18T12:11:05;14.70;96.10
12622;DHT22;6376;48.182;-1.644;2023-11-18T12:13:35;14.70;96.10
12622;DHT22;6376;48.182;-1.644;2023-11-18T12:16:05;14.70;96.10
12622;DHT22;6376;48.182;-1.644;2023-11-18T12:18:31;14.70;96.00
12622;DHT22;6376;48.182;-1.644;2023-11-18T12:20:57;14.80;95.90
12622;DHT22;6376;48.182;-1.644;2023-11-18T12:23:27;14.80;96.00
12622;DHT22;6376;48.182;-1.644;2023-11-18T12:25:54;14.70;96.00
12622;DHT22;6376;48.182;-1.644;2023-11-18T12:28:28;14.80;95.90
12622;DHT22;6376;48.182;-1.644;2023-11-18T12:30:56;14.80;95.60
12622;DHT22;6376;48.182;-1.644;2023-11-18T12:33:23;14.80;95.90
12622;DHT22;6376;48.182;-1.644;2023-11-18T12:41:01;14.80;95.80
12622;DHT22;6376;48.182;-1.644;2023-11-18T12:48:57;14.90;95.40
12622;DHT22;6376;48.182;-1.644;2023-11-18T12:51:26;14.90;95.30
12622;DHT22;6376;48.182;-1.644;2023-11-18T12:53:52;14.90;95.30
12622;DHT22;6376;48.182;-1.644;2023-11-18T12:56:19;14.90;95.20
12622;DHT22;6376;48.182;-1.644;2023-11-18T12:58:46;14.90;95.20
12622;DHT22;6376;48.182;-1.644;2023-11-18T13:01:13;14.90;95.10
12622;DHT22;6376;48.182;-1.644;2023-11-18T13:03:40;14.90;95.30
12622;DHT22;6376;48.182;-1.644;2023-11-18T13:06:09;14.90;95.10
12622;DHT22;6376;48.182;-1.644;2023-11-18T13:08:35;14.90;95.20
12622;DHT22;6376;48.182;-1.644;2023-11-18T13:11:02;14.90;95.10
12622;DHT22;6376;48.182;-1.644;2023-11-18T13:13:28;14.90;95.00
12622;DHT22;6376;48.182;-1.644;2023-11-18T13:15:55;14.90;95.30
12622;DHT22;6376;48.182;-1.644;2023-11-18T13:18:20;14.90;95.20
12622;DHT22;6376;48.182;-1.644;2023-11-18T13:20:56;14.90;95.00
12622;DHT22;6376;48.182;-1.644;2023-11-18T13:23:26;14.90;95.10
12622;DHT22;6376;48.182;-1.644;2023-11-18T13:25:56;14.90;95.00
12622;DHT22;6376;48.182;-1.644;2023-11-18T13:28:25;14.90;95.10
12622;DHT22;6376;48.182;-1.644;2023-11-18T13:30:51;14.90;95.00
12622;DHT22;6376;48.182;-1.644;2023-11-18T13:33:17;14.90;95.10
12622;DHT22;6376;48.182;-1.644;2023-11-18T13:35:43;14.90;95.10
12622;DHT22;6376;48.182;-1.644;2023-11-18T13:38:09;14.90;95.10
12622;DHT22;6376;48.182;-1.644;2023-11-18T13:40:46;15.00;95.10
12622;DHT22;6376;48.182;-1.644;2023-11-18T13:43:12;15.00;95.00
12622;DHT22;6376;48.182;-1.644;2023-11-18T13:45:38;15.00;95.00
12622;DHT22;6376;48.182;-1.644;2023-11-18T13:48:05;14.90;95.10
12622;DHT22;6376;48.182;-1.644;2023-11-18T13:50:34;14.90;95.10
12622;DHT22;6376;48.182;-1.644;2023-11-18T13:53:01;15.00;95.00
12622;DHT22;6376;48.182;-1.644;2023-11-18T13:55:27;15.00;95.10
12622;DHT22;6376;48.182;-1.644;2023-11-18T13:57:56;15.00;94.90
12622;DHT22;6376;48.182;-1.644;2023-11-18T14:00:27;15.00;95.00
12622;DHT22;6376;48.182;-1.644;2023-11-18T14:02:56;15.00;95.10
12622;DHT22;6376;48.182;-1.644;2023-11-18T14:05:22;15.00;94.90
12622;DHT22;6376;48.182;-1.644;2023-11-18T14:07:51;15.00;94.90
12622;DHT22;6376;48.182;-1.644;2023-11-18T14:10:18;15.00;95.10
12622;DHT22;6376;48.182;-1.644;2023-11-18T14:13:06;15.00;95.00
12622;DHT22;6376;48.182;-1.644;2023-11-18T14:15:35;15.00;95.00
12622;DHT22;6376;48.182;-1.644;2023-11-18T14:18:04;15.00;95.00
12622;DHT22;6376;48.182;-1.644;2023-11-18T14:20:33;15.00;94.90
12622;DHT22;6376;48.182;-1.644;2023-11-18T14:23:01;15.00;95.00
12622;DHT22;6376;48.182;-1.644;2023-11-18T14:25:27;15.00;95.00
12622;DHT22;6376;48.182;-1.644;2023-11-18T14:27:52;15.00;94.90
12622;DHT22;6376;48.182;-1.644;2023-11-18T14:30:18;15.00;95.00
12622;DHT22;6376;48.182;-1.644;2023-11-18T14:32:45;15.00;94.90
12622;DHT22;6376;48.182;-1.644;2023-11-18T14:35:12;15.00;95.00
12622;DHT22;6376;48.182;-1.644;2023-11-18T14:37:43;15.00;95.00
12622;DHT22;6376;48.182;-1.644;2023-11-18T14:40:12;15.00;94.90
12622;DHT22;6376;48.182;-1.644;2023-11-18T14:42:42;15.00;94.80
12622;DHT22;6376;48.182;-1.644;2023-11-18T14:45:12;15.00;94.80
12622;DHT22;6376;48.182;-1.644;2023-11-18T14:47:39;15.00;95.10
12622;DHT22;6376;48.182;-1.644;2023-11-18T14:50:06;15.00;95.20
12622;DHT22;6376;48.182;-1.644;2023-11-18T14:52:41;15.00;95.40
12622;DHT22;6376;48.182;-1.644;2023-11-18T14:55:07;15.00;95.00
12622;DHT22;6376;48.182;-1.644;2023-11-18T14:57:41;15.10;95.00
12622;DHT22;6376;48.182;-1.644;2023-11-18T15:00:07;15.00;94.90
12622;DHT22;6376;48.182;-1.644;2023-11-18T15:02:34;15.10;95.00
12622;DHT22;6376;48.182;-1.644;2023-11-18T15:05:02;15.10;94.90
12622;DHT22;6376;48.182;-1.644;2023-11-18T15:07:31;15.10;94.90
12622;DHT22;6376;48.182;-1.644;2023-11-18T15:09:57;15.10;95.10
12622;DHT22;6376;48.182;-1.644;2023-11-18T15:12:23;15.00;95.10
12622;DHT22;6376;48.182;-1.644;2023-11-18T15:14:48;15.10;95.10
12622;DHT22;6376;48.182;-1.644;2023-11-18T15:17:14;15.10;95.00
12622;DHT22;6376;48.182;-1.644;2023-11-18T15:19:40;15.10;94.90
12622;DHT22;6376;48.182;-1.644;2023-11-18T15:22:06;15.10;94.90
12622;DHT22;6376;48.182;-1.644;2023-11-18T15:24:31;15.10;94.90
12622;DHT22;6376;48.182;-1.644;2023-11-18T15:27:00;15.10;95.00
12622;DHT22;6376;48.182;-1.644;2023-11-18T15:29:29;15.10;95.10
12622;DHT22;6376;48.182;-1.644;2023-11-18T15:31:59;15.10;95.10
12622;DHT22;6376;48.182;-1.644;2023-11-18T15:34:24;15.10;94.90
12622;DHT22;6376;48.182;-1.644;2023-11-18T15:36:51;15.10;95.10
12622;DHT22;6376;48.182;-1.644;2023-11-18T15:39:17;15.10;95.00
12622;DHT22;6376;48.182;-1.644;2023-11-18T15:41:44;15.10;95.10
12622;DHT22;6376;48.182;-1.644;2023-11-18T15:44:09;15.10;95.10
12622;DHT22;6376;48.182;-1.644;2023-11-18T15:46:38;15.10;95.10
12622;DHT22;6376;48.182;-1.644;2023-11-18T15:49:04;15.10;95.20
12622;DHT22;6376;48.182;-1.644;2023-11-18T15:51:29;15.10;95.10
12622;DHT22;6376;48.182;-1.644;2023-11-18T15:53:56;15.10;95.40